sensor_id;sensor_type;location;lat;lon;timestamp;pressure;altitude;pressure_sealevel;temperature;humidity
74075;BME280;62428;51.412;5.432;2023-08-17T00:01:23;101807.66;;;19.98;75.41
74075;BME280;62428;51.412;5.432;2023-08-17T00:03:48;101805.28;;;19.97;75.28
74075;BME280;62428;51.412;5.432;2023-08-17T00:06:14;101805.13;;;19.93;75.73
74075;BME280;62428;51.412;5.432;2023-08-17T00:08:39;101805.00;;;19.90;75.53
74075;BME280;62428;51.412;5.432;2023-08-17T00:11:04;101795.72;;;19.82;76.04
74075;BME280;62428;51.412;5.432;2023-08-17T00:13:30;101798.31;;;19.78;76.63
74075;BME280;62428;51.412;5.432;2023-08-17T00:15:55;101799.78;;;19.76;76.79
74075;BME280;62428;51.412;5.432;2023-08-17T00:18:20;101796.91;;;19.72;76.43
74075;BME280;62428;51.412;5.432;2023-08-17T00:20:46;101799.94;;;19.71;76.81
74075;BME280;62428;51.412;5.432;2023-08-17T00:23:11;101797.56;;;19.69;77.25
74075;BME280;62428;51.412;5.432;2023-08-17T00:25:37;101796.75;;;19.69;76.75
74075;BME280;62428;51.412;5.432;2023-08-17T00:28:02;101788.44;;;19.65;76.78
74075;BME280;62428;51.412;5.432;2023-08-17T00:30:27;101790.25;;;19.61;77.47
74075;BME280;62428;51.412;5.432;2023-08-17T00:32:53;101787.06;;;19.59;77.30
74075;BME280;62428;51.412;5.432;2023-08-17T00:35:18;101783.84;;;19.57;77.33
74075;BME280;62428;51.412;5.432;2023-08-17T00:37:43;101787.69;;;19.56;77.38
74075;BME280;62428;51.412;5.432;2023-08-17T00:40:09;101790.28;;;19.52;77.98
74075;BME280;62428;51.412;5.432;2023-08-17T00:42:35;101790.28;;;19.52;77.74
74075;BME280;62428;51.412;5.432;2023-08-17T00:45:00;101790.94;;;19.49;77.70
74075;BME280;62428;51.412;5.432;2023-08-17T00:47:26;101791.63;;;19.46;78.15
74075;BME280;62428;51.412;5.432;2023-08-17T00:49:51;101793.38;;;19.42;78.14
74075;BME280;62428;51.412;5.432;2023-08-17T00:52:17;101796.09;;;19.42;78.21
74075;BME280;62428;51.412;5.432;2023-08-17T00:54:42;101795.16;;;19.38;78.23
74075;BME280;62428;51.412;5.432;2023-08-17T00:57:08;101800.63;;;19.38;78.54
74075;BME280;62428;51.412;5.432;2023-08-17T00:59:34;101798.88;;;19.33;78.40
74075;BME280;62428;51.412;5.432;2023-08-17T01:02:00;101795.34;;;19.33;78.59
74075;BME280;62428;51.412;5.432;2023-08-17T01:04:26;101803.53;;;19.33;78.54
74075;BME280;62428;51.412;5.432;2023-08-17T01:06:51;101803.88;;;19.31;78.46
74075;BME280;62428;51.412;5.432;2023-08-17T01:09:17;101803.72;;;19.28;78.01
74075;BME280;62428;51.412;5.432;2023-08-17T01:11:48;101803.22;;;19.26;78.18
74075;BME280;62428;51.412;5.432;2023-08-17T01:16:50;101802.13;;;19.27;78.80
74075;BME280;62428;51.412;5.432;2023-08-17T01:19:24;101800.19;;;19.27;78.79
74075;BME280;62428;51.412;5.432;2023-08-17T01:21:50;101797.47;;;19.27;79.21
74075;BME280;62428;51.412;5.432;2023-08-17T01:24:16;101801.78;;;19.28;78.47
74075;BME280;62428;51.412;5.432;2023-08-17T01:26:42;101794.72;;;19.27;78.15
74075;BME280;62428;51.412;5.432;2023-08-17T01:29:07;101800.19;;;19.27;77.95
74075;BME280;62428;51.412;5.432;2023-08-17T01:32:10;101798.94;;;19.25;77.99
74075;BME280;62428;51.412;5.432;2023-08-17T01:34:45;101793.00;;;19.23;77.89
74075;BME280;62428;51.412;5.432;2023-08-17T01:37:14;101789.50;;;19.22;79.17
74075;BME280;62428;51.412;5.432;2023-08-17T01:39:44;101798.47;;;19.23;78.35
74075;BME280;62428;51.412;5.432;2023-08-17T01:42:16;101788.53;;;19.18;78.41
74075;BME280;62428;51.412;5.432;2023-08-17T01:44:41;101787.59;;;19.14;78.70
74075;BME280;62428;51.412;5.432;2023-08-17T01:47:07;101787.13;;;19.12;78.91
74075;BME280;62428;51.412;5.432;2023-08-17T01:49:32;101784.72;;;19.10;79.08
74075;BME280;62428;51.412;5.432;2023-08-17T01:51:58;101778.50;;;19.10;79.27
74075;BME280;62428;51.412;5.432;2023-08-17T01:54:23;101794.00;;;19.09;79.26
74075;BME280;62428;51.412;5.432;2023-08-17T01:56:49;101784.91;;;19.05;79.35
74075;BME280;62428;51.412;5.432;2023-08-17T01:59:14;101781.22;;;19.01;79.54
74075;BME280;62428;51.412;5.432;2023-08-17T02:01:40;101779.97;;;18.98;79.71
74075;BME280;62428;51.412;5.432;2023-08-17T02:04:06;101796.16;;;18.95;80.04
74075;BME280;62428;51.412;5.432;2023-08-17T02:06:31;101788.50;;;18.88;80.35
74075;BME280;62428;51.412;5.432;2023-08-17T02:08:58;101787.53;;;18.84;80.54
74075;BME280;62428;51.412;5.432;2023-08-17T02:11:23;101796.63;;;18.79;80.68
74075;BME280;62428;51.412;5.432;2023-08-17T02:13:49;101788.50;;;18.71;81.55
74075;BME280;62428;51.412;5.432;2023-08-17T02:16:14;101800.38;;;18.66;81.62
74075;BME280;62428;51.412;5.432;2023-08-17T02:18:39;101797.97;;;18.64;82.21
74075;BME280;62428;51.412;5.432;2023-08-17T02:21:05;101794.75;;;18.62;82.10
74075;BME280;62428;51.412;5.432;2023-08-17T02:23:30;101785.00;;;18.61;82.43
74075;BME280;62428;51.412;5.432;2023-08-17T02:25:55;101788.03;;;18.60;82.41
74075;BME280;62428;51.412;5.432;2023-08-17T02:28:21;101786.44;;;18.59;83.02
74075;BME280;62428;51.412;5.432;2023-08-17T02:30:46;101789.16;;;18.59;82.75
74075;BME280;62428;51.412;5.432;2023-08-17T02:33:13;101790.28;;;18.58;83.08
74075;BME280;62428;51.412;5.432;2023-08-17T02:35:38;101787.56;;;18.58;83.60
74075;BME280;62428;51.412;5.432;2023-08-17T02:38:03;101789.50;;;18.57;82.97
74075;BME280;62428;51.412;5.432;2023-08-17T02:40:29;101784.69;;;18.54;83.52
74075;BME280;62428;51.412;5.432;2023-08-17T02:42:54;101785.03;;;18.53;83.92
74075;BME280;62428;51.412;5.432;2023-08-17T02:45:19;101771.59;;;18.56;83.65
74075;BME280;62428;51.412;5.432;2023-08-17T02:47:45;101775.88;;;18.57;83.68
74075;BME280;62428;51.412;5.432;2023-08-17T02:50:10;101778.13;;;18.55;83.50
74075;BME280;62428;51.412;5.432;2023-08-17T02:52:35;101780.69;;;18.52;83.87
74075;BME280;62428;51.412;5.432;2023-08-17T02:55:01;101775.88;;;18.49;83.92
74075;BME280;62428;51.412;5.432;2023-08-17T02:57:26;101769.66;;;18.48;83.96
74075;BME280;62428;51.412;5.432;2023-08-17T02:59:51;101761.03;;;18.46;84.37
74075;BME280;62428;51.412;5.432;2023-08-17T03:02:17;101764.06;;;18.44;83.74
74075;BME280;62428;51.412;5.432;2023-08-17T03:04:42;101767.41;;;18.41;84.13
74075;BME280;62428;51.412;5.432;2023-08-17T03:07:08;101774.63;;;18.37;84.22
74075;BME280;62428;51.412;5.432;2023-08-17T03:09:33;101767.59;;;18.36;84.25
74075;BME280;62428;51.412;5.432;2023-08-17T03:11:58;101759.44;;;18.36;84.42
74075;BME280;62428;51.412;5.432;2023-08-17T03:14:23;101765.38;;;18.38;84.13
74075;BME280;62428;51.412;5.432;2023-08-17T03:16:49;101769.19;;;18.37;84.22
74075;BME280;62428;51.412;5.432;2023-08-17T03:19:15;101766.00;;;18.35;84.32
74075;BME280;62428;51.412;5.432;2023-08-17T03:21:40;101764.72;;;18.33;84.77
74075;BME280;62428;51.412;5.432;2023-08-17T03:24:06;101755.59;;;18.29;84.64
74075;BME280;62428;51.412;5.432;2023-08-17T03:26:31;101760.56;;;18.27;85.12
74075;BME280;62428;51.412;5.432;2023-08-17T03:28:57;101763.59;;;18.25;84.36
74075;BME280;62428;51.412;5.432;2023-08-17T03:31:22;101763.94;;;18.23;84.63
74075;BME280;62428;51.412;5.432;2023-08-17T03:33:48;101756.09;;;18.22;84.54
74075;BME280;62428;51.412;5.432;2023-08-17T03:36:14;101765.38;;;18.21;84.70
74075;BME280;62428;51.412;5.432;2023-08-17T03:38:39;101763.13;;;18.23;84.52
74075;BME280;62428;51.412;5.432;2023-08-17T03:41:05;101761.53;;;18.22;84.51
74075;BME280;62428;51.412;5.432;2023-08-17T03:43:31;101754.16;;;18.22;84.39
74075;BME280;62428;51.412;5.432;2023-08-17T03:45:57;101761.53;;;18.22;84.09
74075;BME280;62428;51.412;5.432;2023-08-17T03:48:22;101761.84;;;18.20;84.47
74075;BME280;62428;51.412;5.432;2023-08-17T03:50:54;101759.44;;;18.19;84.18
74075;BME280;62428;51.412;5.432;2023-08-17T03:53:20;101766.66;;;18.23;84.20
74075;BME280;62428;51.412;5.432;2023-08-17T03:55:47;101756.56;;;18.24;84.09
74075;BME280;62428;51.412;5.432;2023-08-17T03:58:12;101765.53;;;18.24;83.86
74075;BME280;62428;51.412;5.432;2023-08-17T04:00:38;101758.16;;;18.25;83.71
74075;BME280;62428;51.412;5.432;2023-08-17T04:03:04;101765.84;;;18.23;83.44
74075;BME280;62428;51.412;5.432;2023-08-17T04:05:30;101773.53;;;18.21;83.74
74075;BME280;62428;51.412;5.432;2023-08-17T04:07:55;101772.41;;;18.22;83.66
74075;BME280;62428;51.412;5.432;2023-08-17T04:10:21;101768.56;;;18.23;83.54
74075;BME280;62428;51.412;5.432;2023-08-17T04:12:46;101779.75;;;18.21;83.32
74075;BME280;62428;51.412;5.432;2023-08-17T04:15:11;101777.53;;;18.23;83.30
74075;BME280;62428;51.412;5.432;2023-08-17T04:17:37;101783.28;;;18.22;82.86
74075;BME280;62428;51.412;5.432;2023-08-17T04:20:02;101780.09;;;18.20;83.50
74075;BME280;62428;51.412;5.432;2023-08-17T04:22:28;101789.84;;;18.21;83.03
74075;BME280;62428;51.412;5.432;2023-08-17T04:24:53;101784.88;;;18.23;83.82
74075;BME280;62428;51.412;5.432;2023-08-17T04:27:18;101790.63;;;18.21;82.82
74075;BME280;62428;51.412;5.432;2023-08-17T04:29:44;101794.97;;;18.22;82.63
74075;BME280;62428;51.412;5.432;2023-08-17T04:32:14;101799.94;;;18.20;82.53
74075;BME280;62428;51.412;5.432;2023-08-17T04:34:41;101796.72;;;18.18;82.62
74075;BME280;62428;51.412;5.432;2023-08-17T04:37:07;101791.59;;;18.17;82.35
74075;BME280;62428;51.412;5.432;2023-08-17T04:39:32;101798.97;;;18.16;82.86
74075;BME280;62428;51.412;5.432;2023-08-17T04:41:58;101799.13;;;18.20;82.46
74075;BME280;62428;51.412;5.432;2023-08-17T04:44:23;101798.97;;;18.16;82.94
74075;BME280;62428;51.412;5.432;2023-08-17T04:46:49;101799.91;;;18.12;82.54
74075;BME280;62428;51.412;5.432;2023-08-17T04:49:14;101804.09;;;18.09;82.66
74075;BME280;62428;51.412;5.432;2023-08-17T04:51:39;101797.34;;;18.06;83.02
74075;BME280;62428;51.412;5.432;2023-08-17T04:54:04;101801.22;;;18.05;82.45
74075;BME280;62428;51.412;5.432;2023-08-17T04:56:30;101796.72;;;18.01;83.04
74075;BME280;62428;51.412;5.432;2023-08-17T04:58:55;101800.88;;;17.98;83.21
74075;BME280;62428;51.412;5.432;2023-08-17T05:01:21;101806.31;;;17.98;83.02
74075;BME280;62428;51.412;5.432;2023-08-17T05:03:46;101799.28;;;17.97;83.11
74075;BME280;62428;51.412;5.432;2023-08-17T05:06:11;101797.69;;;17.96;83.67
74075;BME280;62428;51.412;5.432;2023-08-17T05:08:37;101793.34;;;17.95;83.40
74075;BME280;62428;51.412;5.432;2023-08-17T05:11:02;101784.09;;;17.96;83.49
74075;BME280;62428;51.412;5.432;2023-08-17T05:13:28;101782.97;;;17.97;83.23
74075;BME280;62428;51.412;5.432;2023-08-17T05:15:53;101784.56;;;17.98;83.33
74075;BME280;62428;51.412;5.432;2023-08-17T05:18:18;101788.41;;;17.97;83.79
74075;BME280;62428;51.412;5.432;2023-08-17T05:20:44;101791.91;;;17.98;83.64
74075;BME280;62428;51.412;5.432;2023-08-17T05:23:09;101793.34;;;17.95;83.43
74075;BME280;62428;51.412;5.432;2023-08-17T05:25:34;101789.69;;;17.91;83.89
74075;BME280;62428;51.412;5.432;2023-08-17T05:28:00;101798.63;;;17.92;83.72
74075;BME280;62428;51.412;5.432;2023-08-17T05:30:25;101786.16;;;17.91;84.12
74075;BME280;62428;51.412;5.432;2023-08-17T05:32:50;101792.41;;;17.91;84.24
74075;BME280;62428;51.412;5.432;2023-08-17T05:35:17;101793.97;;;17.92;84.45
74075;BME280;62428;51.412;5.432;2023-08-17T05:37:42;101795.91;;;17.92;84.00
74075;BME280;62428;51.412;5.432;2023-08-17T05:40:08;101792.41;;;17.91;84.41
74075;BME280;62428;51.412;5.432;2023-08-17T05:42:34;101790.16;;;17.93;84.74
74075;BME280;62428;51.412;5.432;2023-08-17T05:44:59;101793.50;;;17.99;84.51
74075;BME280;62428;51.412;5.432;2023-08-17T05:47:24;101792.56;;;18.03;84.44
74075;BME280;62428;51.412;5.432;2023-08-17T05:49:50;101788.25;;;18.02;84.54
74075;BME280;62428;51.412;5.432;2023-08-17T05:52:15;101791.75;;;18.03;84.58
74075;BME280;62428;51.412;5.432;2023-08-17T05:54:40;101788.72;;;18.04;84.53
74075;BME280;62428;51.412;5.432;2023-08-17T05:57:07;101791.28;;;18.10;84.68
74075;BME280;62428;51.412;5.432;2023-08-17T05:59:32;101791.75;;;18.12;84.30
74075;BME280;62428;51.412;5.432;2023-08-17T06:01:57;101794.16;;;18.13;84.30
74075;BME280;62428;51.412;5.432;2023-08-17T06:04:23;101799.28;;;18.15;84.48
74075;BME280;62428;51.412;5.432;2023-08-17T06:06:49;101812.06;;;18.14;84.13
74075;BME280;62428;51.412;5.432;2023-08-17T06:09:14;101814.00;;;18.14;84.49
74075;BME280;62428;51.412;5.432;2023-08-17T06:11:40;101812.41;;;18.13;84.50
74075;BME280;62428;51.412;5.432;2023-08-17T06:14:06;101815.59;;;18.15;84.96
74075;BME280;62428;51.412;5.432;2023-08-17T06:16:31;101822.16;;;18.14;84.54
74075;BME280;62428;51.412;5.432;2023-08-17T06:18:57;101809.03;;;18.16;84.60
74075;BME280;62428;51.412;5.432;2023-08-17T06:21:22;101817.03;;;18.21;85.11
74075;BME280;62428;51.412;5.432;2023-08-17T06:23:47;101813.22;;;18.22;84.79
74075;BME280;62428;51.412;5.432;2023-08-17T06:26:13;101812.38;;;18.21;85.13
74075;BME280;62428;51.412;5.432;2023-08-17T06:28:38;101817.03;;;18.21;84.72
74075;BME280;62428;51.412;5.432;2023-08-17T06:31:04;101815.78;;;18.18;84.60
74075;BME280;62428;51.412;5.432;2023-08-17T06:33:30;101818.63;;;18.13;85.15
74075;BME280;62428;51.412;5.432;2023-08-17T06:35:55;101824.41;;;18.12;85.05
74075;BME280;62428;51.412;5.432;2023-08-17T06:38:20;101819.59;;;18.09;84.98
74075;BME280;62428;51.412;5.432;2023-08-17T06:40:46;101820.88;;;18.02;85.18
74075;BME280;62428;51.412;5.432;2023-08-17T06:43:11;101816.72;;;17.96;85.57
74075;BME280;62428;51.412;5.432;2023-08-17T06:45:37;101817.34;;;17.93;85.99
74075;BME280;62428;51.412;5.432;2023-08-17T06:48:03;101817.66;;;17.92;85.78
74075;BME280;62428;51.412;5.432;2023-08-17T06:50:28;101818.28;;;17.89;86.66
74075;BME280;62428;51.412;5.432;2023-08-17T06:52:54;101826.94;;;17.91;87.01
74075;BME280;62428;51.412;5.432;2023-08-17T06:55:19;101818.91;;;17.94;86.64
74075;BME280;62428;51.412;5.432;2023-08-17T06:57:46;101815.59;;;17.97;86.52
74075;BME280;62428;51.412;5.432;2023-08-17T07:00:12;101814.63;;;18.02;86.84
74075;BME280;62428;51.412;5.432;2023-08-17T07:02:38;101809.69;;;18.04;86.53
74075;BME280;62428;51.412;5.432;2023-08-17T07:05:04;101819.25;;;18.01;86.13
74075;BME280;62428;51.412;5.432;2023-08-17T07:07:30;101819.25;;;18.01;86.53
74075;BME280;62428;51.412;5.432;2023-08-17T07:09:57;101817.53;;;18.05;86.81
74075;BME280;62428;51.412;5.432;2023-08-17T07:12:23;101816.38;;;18.06;86.76
74075;BME280;62428;51.412;5.432;2023-08-17T07:14:49;101820.72;;;18.08;86.69
74075;BME280;62428;51.412;5.432;2023-08-17T07:17:14;101819.59;;;18.09;86.83
74075;BME280;62428;51.412;5.432;2023-08-17T07:19:40;101818.16;;;18.11;87.34
74075;BME280;62428;51.412;5.432;2023-08-17T07:22:06;101818.63;;;18.13;87.08
74075;BME280;62428;51.412;5.432;2023-08-17T07:24:31;101828.38;;;18.14;86.63
74075;BME280;62428;51.412;5.432;2023-08-17T07:26:56;101827.59;;;18.14;86.67
74075;BME280;62428;51.412;5.432;2023-08-17T07:29:22;101826.31;;;18.11;86.48
74075;BME280;62428;51.412;5.432;2023-08-17T07:31:48;101823.44;;;18.08;86.75
74075;BME280;62428;51.412;5.432;2023-08-17T07:34:13;101823.75;;;18.06;87.56
74075;BME280;62428;51.412;5.432;2023-08-17T07:36:39;101825.69;;;18.05;87.28
74075;BME280;62428;51.412;5.432;2023-08-17T07:39:04;101828.56;;;18.09;87.71
74075;BME280;62428;51.412;5.432;2023-08-17T07:41:30;101827.91;;;18.12;87.89
74075;BME280;62428;51.412;5.432;2023-08-17T07:43:55;101837.03;;;18.16;87.09
74075;BME280;62428;51.412;5.432;2023-08-17T07:46:21;101834.50;;;18.20;87.61
74075;BME280;62428;51.412;5.432;2023-08-17T07:48:46;101833.34;;;18.21;86.94
74075;BME280;62428;51.412;5.432;2023-08-17T07:51:12;101838.31;;;18.19;87.02
74075;BME280;62428;51.412;5.432;2023-08-17T07:53:37;101831.25;;;18.18;87.35
74075;BME280;62428;51.412;5.432;2023-08-17T07:56:03;101837.22;;;18.20;86.25
74075;BME280;62428;51.412;5.432;2023-08-17T07:58:28;101837.22;;;18.20;86.88
74075;BME280;62428;51.412;5.432;2023-08-17T08:00:53;101838.00;;;18.20;86.49
74075;BME280;62428;51.412;5.432;2023-08-17T08:03:19;101842.31;;;18.21;86.85
74075;BME280;62428;51.412;5.432;2023-08-17T08:05:44;101827.13;;;18.20;87.16
74075;BME280;62428;51.412;5.432;2023-08-17T08:08:09;101829.22;;;18.23;87.09
74075;BME280;62428;51.412;5.432;2023-08-17T08:10:35;101832.41;;;18.25;87.32
74075;BME280;62428;51.412;5.432;2023-08-17T08:13:00;101833.69;;;18.28;87.21
74075;BME280;62428;51.412;5.432;2023-08-17T08:15:26;101829.50;;;18.31;87.78
74075;BME280;62428;51.412;5.432;2023-08-17T08:17:51;101830.31;;;18.31;86.84
74075;BME280;62428;51.412;5.432;2023-08-17T08:20:17;101828.72;;;18.30;86.46
74075;BME280;62428;51.412;5.432;2023-08-17T08:22:42;101832.56;;;18.29;86.81
74075;BME280;62428;51.412;5.432;2023-08-17T08:25:08;101830.97;;;18.28;86.72
74075;BME280;62428;51.412;5.432;2023-08-17T08:27:33;101832.56;;;18.29;86.77
74075;BME280;62428;51.412;5.432;2023-08-17T08:29:58;101833.38;;;18.30;87.00
74075;BME280;62428;51.412;5.432;2023-08-17T08:32:24;101837.03;;;18.34;87.34
74075;BME280;62428;51.412;5.432;2023-08-17T08:34:49;101828.56;;;18.35;86.83
74075;BME280;62428;51.412;5.432;2023-08-17T08:37:14;101838.34;;;18.36;86.32
74075;BME280;62428;51.412;5.432;2023-08-17T08:39:51;101834.94;;;18.31;86.32
74075;BME280;62428;51.412;5.432;2023-08-17T08:42:17;101835.59;;;18.28;87.00
74075;BME280;62428;51.412;5.432;2023-08-17T08:44:42;101842.16;;;18.27;86.53
74075;BME280;62428;51.412;5.432;2023-08-17T08:47:08;101833.84;;;18.23;86.99
74075;BME280;62428;51.412;5.432;2023-08-17T08:49:39;101826.81;;;18.22;86.89
74075;BME280;62428;51.412;5.432;2023-08-17T08:52:07;101825.66;;;18.23;87.30
74075;BME280;62428;51.412;5.432;2023-08-17T08:54:35;101822.16;;;18.22;87.44
74075;BME280;62428;51.412;5.432;2023-08-17T08:57:04;101828.38;;;18.23;87.90
74075;BME280;62428;51.412;5.432;2023-08-17T08:59:33;101827.28;;;18.24;87.21
74075;BME280;62428;51.412;5.432;2023-08-17T09:01:59;101813.53;;;18.20;87.69
74075;BME280;62428;51.412;5.432;2023-08-17T09:04:25;101816.25;;;18.20;87.87
74075;BME280;62428;51.412;5.432;2023-08-17T09:06:51;101819.28;;;18.19;88.22
74075;BME280;62428;51.412;5.432;2023-08-17T09:09:16;101812.72;;;18.20;88.07
74075;BME280;62428;51.412;5.432;2023-08-17T09:11:43;101824.72;;;18.19;88.22
74075;BME280;62428;51.412;5.432;2023-08-17T09:14:08;101811.13;;;18.19;87.95
74075;BME280;62428;51.412;5.432;2023-08-17T09:16:34;101818.97;;;18.20;87.96
74075;BME280;62428;51.412;5.432;2023-08-17T09:18:59;101818.66;;;18.22;88.46
74075;BME280;62428;51.412;5.432;2023-08-17T09:21:24;101814.78;;;18.23;87.83
74075;BME280;62428;51.412;5.432;2023-08-17T09:23:54;101827.28;;;18.24;88.31
74075;BME280;62428;51.412;5.432;2023-08-17T09:26:21;101824.25;;;18.25;88.19
74075;BME280;62428;51.412;5.432;2023-08-17T09:28:50;101813.03;;;18.27;88.29
74075;BME280;62428;51.412;5.432;2023-08-17T09:31:20;101815.91;;;18.31;88.61
74075;BME280;62428;51.412;5.432;2023-08-17T09:33:52;101812.56;;;18.34;88.46
74075;BME280;62428;51.412;5.432;2023-08-17T09:36:21;101803.59;;;18.33;87.90
74075;BME280;62428;51.412;5.432;2023-08-17T09:38:50;101812.41;;;18.30;88.10
74075;BME280;62428;51.412;5.432;2023-08-17T09:41:17;101814.00;;;18.31;88.53
74075;BME280;62428;51.412;5.432;2023-08-17T09:43:42;101818.00;;;18.34;88.21
74075;BME280;62428;51.412;5.432;2023-08-17T09:46:09;101818.31;;;18.32;88.66
74075;BME280;62428;51.412;5.432;2023-08-17T09:48:34;101807.44;;;18.32;89.02
74075;BME280;62428;51.412;5.432;2023-08-17T09:51:00;101818.78;;;18.34;88.81
74075;BME280;62428;51.412;5.432;2023-08-17T09:53:26;101816.41;;;18.33;87.96
74075;BME280;62428;51.412;5.432;2023-08-17T09:55:53;101814.16;;;18.35;88.42
74075;BME280;62428;51.412;5.432;2023-08-17T09:58:20;101807.91;;;18.34;88.56
74075;BME280;62428;51.412;5.432;2023-08-17T10:00:47;101799.75;;;18.34;88.55
74075;BME280;62428;51.412;5.432;2023-08-17T10:03:15;101799.13;;;18.37;88.12
74075;BME280;62428;51.412;5.432;2023-08-17T10:05:43;101798.94;;;18.42;88.67
74075;BME280;62428;51.412;5.432;2023-08-17T10:08:10;101802.78;;;18.41;88.42
74075;BME280;62428;51.412;5.432;2023-08-17T10:10:40;101807.13;;;18.42;88.59
74075;BME280;62428;51.412;5.432;2023-08-17T10:13:17;101797.81;;;18.43;88.03
74075;BME280;62428;51.412;5.432;2023-08-17T10:16:02;101794.63;;;18.41;87.98
74075;BME280;62428;51.412;5.432;2023-08-17T10:18:37;101797.34;;;18.41;88.34
74075;BME280;62428;51.412;5.432;2023-08-17T10:21:13;101785.34;;;18.42;88.27
74075;BME280;62428;51.412;5.432;2023-08-17T10:23:39;101788.38;;;18.41;88.54
74075;BME280;62428;51.412;5.432;2023-08-17T10:26:05;101782.16;;;18.40;88.69
74075;BME280;62428;51.412;5.432;2023-08-17T10:28:33;101779.75;;;18.39;89.44
74075;BME280;62428;51.412;5.432;2023-08-17T10:30:59;101777.97;;;18.43;89.14
74075;BME280;62428;51.412;5.432;2023-08-17T10:33:25;101777.50;;;18.50;88.74
74075;BME280;62428;51.412;5.432;2023-08-17T10:35:51;101780.84;;;18.55;87.90
74075;BME280;62428;51.412;5.432;2023-08-17T10:38:17;101781.00;;;18.59;88.22
74075;BME280;62428;51.412;5.432;2023-08-17T10:40:43;101772.22;;;18.62;88.74
74075;BME280;62428;51.412;5.432;2023-08-17T10:43:08;101776.34;;;18.68;88.89
74075;BME280;62428;51.412;5.432;2023-08-17T10:45:35;101779.03;;;18.77;89.00
74075;BME280;62428;51.412;5.432;2023-08-17T10:50:35;101764.94;;;18.92;88.95
74075;BME280;62428;51.412;5.432;2023-08-17T10:53:08;101772.09;;;19.06;88.38
74075;BME280;62428;51.412;5.432;2023-08-17T10:55:39;101776.53;;;19.19;87.74
74075;BME280;62428;51.412;5.432;2023-08-17T10:58:05;101775.53;;;19.24;87.30
74075;BME280;62428;51.412;5.432;2023-08-17T11:00:39;101777.28;;;19.28;87.65
74075;BME280;62428;51.412;5.432;2023-08-17T11:03:10;101772.91;;;19.36;88.12
74075;BME280;62428;51.412;5.432;2023-08-17T11:05:49;101773.97;;;19.44;87.44
74075;BME280;62428;51.412;5.432;2023-08-17T11:08:28;101772.34;;;19.51;86.54
74075;BME280;62428;51.412;5.432;2023-08-17T11:11:09;101789.50;;;19.52;85.61
74075;BME280;62428;51.412;5.432;2023-08-17T11:13:45;101785.16;;;19.51;86.30
74075;BME280;62428;51.412;5.432;2023-08-17T11:16:12;101788.56;;;19.48;85.38
74075;BME280;62428;51.412;5.432;2023-08-17T11:18:38;101785.69;;;19.44;85.90
74075;BME280;62428;51.412;5.432;2023-08-17T11:21:05;101787.47;;;19.40;86.26
74075;BME280;62428;51.412;5.432;2023-08-17T11:23:33;101787.66;;;19.35;85.85
74075;BME280;62428;51.412;5.432;2023-08-17T11:25:59;101786.72;;;19.31;86.19
74075;BME280;62428;51.412;5.432;2023-08-17T11:28:25;101780.94;;;19.32;87.87
74075;BME280;62428;51.412;5.432;2023-08-17T11:31:01;101781.53;;;19.38;88.58
74075;BME280;62428;51.412;5.432;2023-08-17T11:33:27;101790.19;;;19.40;87.39
74075;BME280;62428;51.412;5.432;2023-08-17T11:35:56;101789.84;;;19.42;86.92
74075;BME280;62428;51.412;5.432;2023-08-17T11:38:22;101788.44;;;19.44;88.30
74075;BME280;62428;51.412;5.432;2023-08-17T11:40:48;101790.16;;;19.49;87.78
74075;BME280;62428;51.412;5.432;2023-08-17T11:43:14;101794.63;;;19.53;88.04
74075;BME280;62428;51.412;5.432;2023-08-17T11:45:40;101796.66;;;19.56;87.75
74075;BME280;62428;51.412;5.432;2023-08-17T11:48:06;101790.88;;;19.58;87.86
74075;BME280;62428;51.412;5.432;2023-08-17T11:50:32;101781.28;;;19.61;88.36
74075;BME280;62428;51.412;5.432;2023-08-17T11:53:01;101791.69;;;19.58;86.23
74075;BME280;62428;51.412;5.432;2023-08-17T11:55:26;101800.22;;;19.57;87.23
74075;BME280;62428;51.412;5.432;2023-08-17T11:57:52;101791.91;;;19.53;86.88
74075;BME280;62428;51.412;5.432;2023-08-17T12:00:21;101791.56;;;19.55;87.77
74075;BME280;62428;51.412;5.432;2023-08-17T12:02:51;101787.69;;;19.56;87.78
74075;BME280;62428;51.412;5.432;2023-08-17T12:05:25;101792.03;;;19.57;87.79
74075;BME280;62428;51.412;5.432;2023-08-17T12:07:55;101785.75;;;19.56;87.59
74075;BME280;62428;51.412;5.432;2023-08-17T12:10:21;101789.63;;;19.55;87.77
74075;BME280;62428;51.412;5.432;2023-08-17T12:12:49;101783.25;;;19.51;86.50
74075;BME280;62428;51.412;5.432;2023-08-17T12:15:18;101785.00;;;19.47;87.45
74075;BME280;62428;51.412;5.432;2023-08-17T12:17:47;101785.00;;;19.47;87.54
74075;BME280;62428;51.412;5.432;2023-08-17T12:20:17;101788.06;;;19.46;87.32
74075;BME280;62428;51.412;5.432;2023-08-17T12:22:43;101787.28;;;19.45;87.82
74075;BME280;62428;51.412;5.432;2023-08-17T12:25:09;101788.75;;;19.43;87.96
74075;BME280;62428;51.412;5.432;2023-08-17T12:27:35;101785.56;;;19.40;87.58
74075;BME280;62428;51.412;5.432;2023-08-17T12:30:00;101789.41;;;19.39;87.56
74075;BME280;62428;51.412;5.432;2023-08-17T12:32:25;101790.53;;;19.38;87.87
74075;BME280;62428;51.412;5.432;2023-08-17T12:34:51;101786.34;;;19.41;89.73
74075;BME280;62428;51.412;5.432;2023-08-17T12:37:20;101795.00;;;19.43;89.54
74075;BME280;62428;51.412;5.432;2023-08-17T12:39:48;101787.59;;;19.44;88.59
74075;BME280;62428;51.412;5.432;2023-08-17T12:42:14;101787.59;;;19.44;87.77
74075;BME280;62428;51.412;5.432;2023-08-17T12:44:40;101785.34;;;19.46;88.89
74075;BME280;62428;51.412;5.432;2023-08-17T12:47:06;101783.13;;;19.48;88.84
74075;BME280;62428;51.412;5.432;2023-08-17T12:49:35;101780.03;;;19.49;88.55
74075;BME280;62428;51.412;5.432;2023-08-17T12:52:00;101776.97;;;19.51;87.74